Rechitsa, Belarus
Current Conditions -  °F | °C
As of 7:30 AM on Tuesday 27 Jan 2015 (Local Time) from UMGG Reporting Station
Light Snow Light Snow  
Wind Chill: 19°   Ceiling: 2300
Heat Index: 25°   Visibility: 4mi
Dew Point: 23°   Wind: 4mph
Humidity: 93%   Direction: NA
Pressure: 30.06"   Gusts: NA
Location:  52.37°N, 30.4°E
Report Text: UMGG 270530Z VRB02MPS 6000 -SN OVC023 M04/M05 Q1018 R28/550342NOSIG
Loading
Personal Weather Stations






























Interactive Weather Map New forecast layout! Learn more

10-Day Weather Forecast

Advertisements
Track Severe Weather on mobile